createdAt,value
2017-11-08T00:00:09.501Z,17.95
2017-11-08T00:00:22.475Z,17.94
2017-11-08T00:00:35.951Z,17.92
2017-11-08T00:00:48.883Z,17.86
2017-11-08T00:01:02.340Z,17.84
2017-11-08T00:01:14.149Z,17.92
2017-11-08T00:01:27.579Z,17.95
2017-11-08T00:01:39.425Z,17.94
2017-11-08T00:01:52.318Z,17.96
2017-11-08T00:02:05.292Z,17.9
2017-11-08T00:02:18.741Z,17.83
2017-11-08T00:02:33.043Z,17.99
2017-11-08T00:02:46.521Z,17.88
2017-11-08T00:02:59.472Z,17.88
2017-11-08T00:03:12.391Z,17.95
2017-11-08T00:03:25.306Z,17.95
2017-11-08T00:03:38.738Z,17.94
2017-11-08T00:03:52.236Z,17.94
2017-11-08T00:04:05.090Z,17.92
2017-11-08T00:04:16.943Z,17.96
2017-11-08T00:04:29.838Z,17.9
2017-11-08T00:04:42.757Z,17.94
2017-11-08T00:04:55.146Z,17.87
2017-11-08T00:05:08.613Z,17.95
2017-11-08T00:05:20.983Z,17.94
2017-11-08T00:05:34.446Z,17.94
2017-11-08T00:05:46.822Z,17.92
2017-11-08T00:05:59.766Z,17.94
2017-11-08T00:06:12.737Z,17.94
2017-11-08T00:06:25.699Z,17.95
2017-11-08T00:06:38.615Z,17.96
2017-11-08T00:06:50.415Z,17.94
2017-11-08T00:07:03.337Z,17.9
2017-11-08T00:07:15.200Z,17.95
2017-11-08T00:07:28.123Z,17.98
2017-11-08T00:07:41.025Z,17.9
2017-11-08T00:07:54.505Z,17.9
2017-11-08T00:08:06.333Z,17.9
2017-11-08T00:08:19.255Z,18.01
2017-11-08T00:08:32.573Z,17.99
2017-11-08T00:08:45.937Z,17.94
2017-11-08T00:08:59.618Z,17.98
2017-11-08T00:09:12.533Z,18.03
2017-11-08T00:09:27.430Z,17.99
2017-11-08T00:09:40.316Z,17.92
2017-11-08T00:09:53.420Z,17.92
2017-11-08T00:10:08.270Z,18.02
2017-11-08T00:10:21.895Z,18.01
2017-11-08T00:10:35.067Z,17.99
2017-11-08T00:10:48.514Z,18.01
2017-11-08T00:11:01.105Z,17.95
2017-11-08T00:11:14.752Z,17.95
2017-11-08T00:11:27.356Z,17.98
2017-11-08T00:11:42.128Z,17.94
2017-11-08T00:11:54.740Z,18.03
2017-11-08T00:12:07.321Z,18.03
2017-11-08T00:12:20.330Z,18.02
2017-11-08T00:12:32.858Z,18.02
2017-11-08T00:12:45.772Z,17.98
2017-11-08T00:12:59.126Z,17.94
2017-11-08T00:13:12.598Z,18.03
2017-11-08T00:13:26.109Z,17.95
2017-11-08T00:13:39.780Z,17.98
2017-11-08T00:13:52.681Z,18.01
2017-11-08T00:14:05.636Z,17.95
2017-11-08T00:14:17.702Z,17.95
2017-11-08T00:14:30.634Z,17.99
2017-11-08T00:14:42.497Z,18.02
2017-11-08T00:14:55.054Z,18.01
2017-11-08T00:15:08.287Z,18.01
2017-11-08T00:15:20.884Z,17.95
2017-11-08T00:15:34.018Z,17.99
2017-11-08T00:15:47.652Z,17.99
2017-11-08T00:16:01.055Z,18.05
2017-11-08T00:16:14.558Z,17.98
2017-11-08T00:16:26.960Z,17.99
2017-11-08T00:16:39.901Z,17.99
2017-11-08T00:16:53.401Z,18.08
2017-11-08T00:17:06.378Z,18.1
2017-11-08T00:17:19.825Z,18.05
2017-11-08T00:17:33.317Z,18.02
2017-11-08T00:17:45.644Z,18.05
2017-11-08T00:17:58.546Z,18.06
2017-11-08T00:18:11.408Z,18.01
2017-11-08T00:18:23.808Z,18.02
2017-11-08T00:18:36.756Z,18.08
2017-11-08T00:18:50.282Z,18.01
2017-11-08T00:19:03.819Z,18.02
2017-11-08T00:19:17.260Z,18.03
2017-11-08T00:19:30.713Z,17.98
2017-11-08T00:19:43.664Z,18.03
2017-11-08T00:19:57.202Z,18.05
2017-11-08T00:20:10.736Z,17.95
2017-11-08T00:20:24.216Z,17.99
2017-11-08T00:20:37.064Z,17.99
2017-11-08T00:20:48.369Z,17.99
2017-11-08T00:21:01.856Z,17.94
2017-11-08T00:21:14.201Z,17.95
2017-11-08T00:21:27.597Z,18.02
2017-11-08T00:21:41.045Z,17.96
2017-11-08T00:21:52.930Z,18.02
2017-11-08T00:22:05.864Z,17.98
2017-11-08T00:22:17.722Z,17.96
2017-11-08T00:22:30.063Z,17.98
2017-11-08T00:22:42.555Z,17.96
2017-11-08T00:22:55.489Z,17.9
2017-11-08T00:23:08.417Z,17.98
2017-11-08T00:23:21.337Z,17.92
2017-11-08T00:23:34.795Z,17.98
2017-11-08T00:23:47.711Z,17.96
2017-11-08T00:24:01.176Z,18.05
2017-11-08T00:24:14.581Z,17.99
2017-11-08T00:24:26.446Z,17.95
2017-11-08T00:24:39.383Z,17.92
2017-11-08T00:24:51.214Z,17.99
2017-11-08T00:25:04.679Z,17.98
2017-11-08T00:25:18.181Z,17.99
2017-11-08T00:25:31.143Z,17.98
2017-11-08T00:25:43.512Z,17.99
2017-11-08T00:25:56.426Z,17.95
2017-11-08T00:26:09.334Z,18.11
2017-11-08T00:26:21.776Z,18.06
2017-11-08T00:26:35.208Z,18.08
2017-11-08T00:26:48.093Z,18.08
2017-11-08T00:27:01.577Z,18.08
2017-11-08T00:27:15.021Z,18.16
2017-11-08T00:27:28.517Z,18.17
2017-11-08T00:27:40.619Z,18.08
2017-11-08T00:27:53.034Z,18.02
2017-11-08T00:28:05.947Z,18.11
2017-11-08T00:28:18.337Z,18.08
2017-11-08T00:28:31.324Z,18.11
2017-11-08T00:28:43.708Z,18.05
2017-11-08T00:28:55.533Z,18.1
2017-11-08T00:29:09.005Z,18.08
2017-11-08T00:29:20.803Z,18.14
2017-11-08T00:29:33.128Z,18.17
2017-11-08T00:29:45.503Z,18.14
2017-11-08T00:29:57.855Z,18.11
2017-11-08T00:30:10.196Z,18.08
2017-11-08T00:30:23.082Z,18.03
2017-11-08T00:30:34.417Z,18.13
2017-11-08T00:30:47.368Z,18.11
2017-11-08T00:30:59.745Z,18.06
2017-11-08T00:31:13.220Z,18.03
2017-11-08T00:31:25.074Z,18.03
2017-11-08T00:31:37.981Z,18.08
2017-11-08T00:31:51.389Z,18.05
2017-11-08T00:32:04.330Z,18.11
2017-11-08T00:32:17.849Z,18.03
2017-11-08T00:32:31.250Z,18.06
2017-11-08T00:32:44.927Z,18.01
2017-11-08T00:32:58.417Z,18.05
2017-11-08T00:33:11.878Z,18.03
2017-11-08T00:33:25.360Z,18.1
2017-11-08T00:33:38.263Z,18.1
2017-11-08T00:33:50.122Z,18.06
2017-11-08T00:34:03.068Z,18.03
2017-11-08T00:34:15.965Z,17.99
2017-11-08T00:34:28.850Z,18.1
2017-11-08T00:34:42.287Z,17.99
2017-11-08T00:34:54.178Z,18.06
2017-11-08T00:35:07.615Z,17.98
2017-11-08T00:35:21.105Z,18.08
2017-11-08T00:35:34.616Z,17.98
2017-11-08T00:35:47.014Z,17.99
2017-11-08T00:36:00.481Z,18.05
2017-11-08T00:36:13.945Z,17.99
2017-11-08T00:36:26.332Z,18.02
2017-11-08T00:36:39.233Z,18.03
2017-11-08T00:36:51.590Z,18.02
2017-11-08T00:37:04.543Z,17.99
2017-11-08T00:37:17.468Z,17.96
2017-11-08T00:37:30.430Z,18.05
2017-11-08T00:37:43.301Z,18.05
2017-11-08T00:37:55.136Z,17.98
2017-11-08T00:38:08.612Z,17.98
2017-11-08T00:38:21.539Z,18.08
2017-11-08T00:38:34.973Z,18.06
2017-11-08T00:38:48.438Z,17.99
2017-11-08T00:39:01.867Z,18.03
2017-11-08T00:39:15.321Z,18.03
2017-11-08T00:39:28.264Z,18.01
2017-11-08T00:39:40.641Z,18.05
2017-11-08T00:39:53.590Z,18.03
2017-11-08T00:40:06.501Z,18.01
2017-11-08T00:40:19.376Z,18.05
2017-11-08T00:40:31.749Z,18.06
2017-11-08T00:40:45.249Z,17.98
2017-11-08T00:40:57.638Z,18.03
2017-11-08T00:41:09.997Z,18.05
2017-11-08T00:41:23.455Z,18.01
2017-11-08T00:41:36.927Z,18.03
2017-11-08T00:41:49.311Z,18.05
2017-11-08T00:42:02.234Z,17.99
2017-11-08T00:42:15.155Z,18.05
2017-11-08T00:42:28.606Z,18.03
2017-11-08T00:42:41.119Z,17.96
2017-11-08T00:42:54.061Z,17.99
2017-11-08T00:43:05.924Z,17.9
2017-11-08T00:43:18.851Z,18.02
2017-11-08T00:43:32.371Z,17.99
2017-11-08T00:43:48.911Z,17.94
2017-11-08T00:44:01.297Z,17.94
2017-11-08T00:44:14.802Z,17.99
2017-11-08T00:44:28.237Z,17.96
2017-11-08T00:44:41.726Z,17.88
2017-11-08T00:44:54.656Z,17.98
2017-11-08T00:45:07.584Z,18.03
2017-11-08T00:45:21.104Z,17.98
2017-11-08T00:45:34.575Z,18.01
2017-11-08T00:45:46.971Z,17.95
2017-11-08T00:46:00.418Z,17.99
2017-11-08T00:46:12.812Z,17.99
2017-11-08T00:46:25.695Z,18.01
2017-11-08T00:46:38.686Z,17.9
2017-11-08T00:46:51.593Z,17.92
2017-11-08T00:47:05.051Z,17.94
2017-11-08T00:47:18.489Z,17.9
2017-11-08T00:47:31.388Z,17.92
2017-11-08T00:47:44.514Z,17.9
2017-11-08T00:47:58.063Z,17.98
2017-11-08T00:48:10.983Z,18.02
2017-11-08T00:48:24.453Z,17.99
2017-11-08T00:48:36.328Z,18.02
2017-11-08T00:48:49.847Z,17.87
2017-11-08T00:49:02.220Z,17.92
2017-11-08T00:49:15.163Z,18.03
2017-11-08T00:49:27.510Z,17.98
2017-11-08T00:49:39.908Z,17.92
2017-11-08T00:49:52.820Z,18.01
2017-11-08T00:50:05.737Z,17.94
2017-11-08T00:50:19.165Z,18.06
2017-11-08T00:50:31.592Z,17.95
2017-11-08T00:50:43.428Z,17.99
2017-11-08T00:50:55.846Z,18.01
2017-11-08T00:51:08.790Z,17.9
2017-11-08T00:51:21.178Z,18.01
2017-11-08T00:51:34.651Z,17.98
2017-11-08T00:51:46.513Z,18.02
2017-11-08T00:51:58.924Z,17.98
2017-11-08T00:52:11.802Z,18.05
2017-11-08T00:52:24.705Z,17.98
2017-11-08T00:52:38.250Z,17.95
2017-11-08T00:52:51.273Z,17.94
2017-11-08T00:53:04.227Z,17.98
2017-11-08T00:53:17.747Z,17.94
2017-11-08T00:53:31.264Z,18.02
2017-11-08T00:53:43.126Z,18.01
2017-11-08T00:53:56.626Z,17.98
2017-11-08T00:54:10.060Z,17.96
2017-11-08T00:54:22.434Z,17.99
2017-11-08T00:54:34.836Z,17.94
2017-11-08T00:54:47.203Z,17.98
2017-11-08T00:55:00.598Z,17.98
2017-11-08T00:55:12.949Z,17.9
2017-11-08T00:55:25.339Z,17.94
2017-11-08T00:55:38.792Z,17.95
2017-11-08T00:55:51.705Z,17.94
2017-11-08T00:56:04.607Z,17.98
2017-11-08T00:56:17.583Z,17.98
2017-11-08T00:56:31.089Z,17.88
2017-11-08T00:56:44.536Z,17.81
2017-11-08T00:56:58.013Z,17.81
2017-11-08T00:57:11.476Z,17.79
2017-11-08T00:57:24.443Z,17.84
2017-11-08T00:57:37.929Z,17.77
2017-11-08T00:57:50.500Z,17.77
2017-11-08T00:58:02.336Z,17.77
2017-11-08T00:58:15.809Z,17.8
2017-11-08T00:58:29.317Z,17.81
2017-11-08T00:58:41.684Z,17.8
2017-11-08T00:58:54.693Z,17.83
2017-11-08T00:59:07.662Z,17.8
2017-11-08T00:59:21.087Z,17.83
2017-11-08T00:59:33.415Z,17.83
2017-11-08T00:59:46.315Z,17.8
2017-11-08T00:59:59.755Z,17.81
2017-11-08T01:00:13.234Z,17.8
2017-11-08T01:00:25.559Z,17.77
2017-11-08T01:00:38.999Z,17.77
2017-11-08T01:00:52.507Z,17.8
2017-11-08T01:01:05.433Z,17.81
2017-11-08T01:01:18.369Z,17.74
2017-11-08T01:01:30.749Z,17.87
2017-11-08T01:01:43.738Z,17.86
2017-11-08T01:01:57.225Z,17.8
2017-11-08T01:02:09.590Z,17.83
2017-11-08T01:02:23.065Z,17.8
2017-11-08T01:02:36.578Z,17.81
2017-11-08T01:02:50.027Z,17.87
2017-11-08T01:03:04.380Z,17.92
2017-11-08T01:03:16.293Z,17.94
2017-11-08T01:03:28.674Z,17.77
2017-11-08T01:03:42.168Z,17.84
2017-11-08T01:03:55.033Z,17.87
2017-11-08T01:04:07.982Z,17.83
2017-11-08T01:04:20.908Z,17.81
2017-11-08T01:04:33.295Z,17.79
2017-11-08T01:04:46.288Z,17.84
2017-11-08T01:04:59.200Z,17.77
2017-11-08T01:05:11.056Z,17.87
2017-11-08T01:05:23.936Z,17.84
2017-11-08T01:05:37.377Z,17.8
2017-11-08T01:05:50.862Z,17.95
2017-11-08T01:06:02.712Z,17.86
2017-11-08T01:06:15.608Z,17.81
2017-11-08T01:06:28.578Z,17.83
2017-11-08T01:06:42.041Z,17.88
2017-11-08T01:06:55.579Z,17.8
2017-11-08T01:07:08.541Z,17.77
2017-11-08T01:07:22.036Z,17.74
2017-11-08T01:07:35.468Z,17.86
2017-11-08T01:07:48.926Z,17.8
2017-11-08T01:08:00.737Z,17.76
2017-11-08T01:08:14.222Z,17.73
2017-11-08T01:08:26.623Z,17.81
2017-11-08T01:08:40.118Z,17.83
2017-11-08T01:08:53.024Z,17.83
2017-11-08T01:09:05.995Z,17.8
2017-11-08T01:09:18.955Z,17.81
2017-11-08T01:09:31.357Z,17.86
2017-11-08T01:09:44.827Z,17.8
2017-11-08T01:09:57.168Z,17.77
2017-11-08T01:10:10.296Z,17.79
2017-11-08T01:10:23.717Z,17.81
2017-11-08T01:10:36.655Z,17.81
2017-11-08T01:10:49.593Z,17.8
2017-11-08T01:11:03.097Z,17.83
2017-11-08T01:11:15.989Z,17.81
2017-11-08T01:11:29.403Z,17.8
2017-11-08T01:11:42.317Z,17.83
2017-11-08T01:11:55.256Z,17.81
2017-11-08T01:12:08.204Z,17.81
2017-11-08T01:12:21.657Z,17.79
2017-11-08T01:12:34.008Z,17.71
2017-11-08T01:12:46.927Z,17.76
2017-11-08T01:13:00.502Z,17.74
2017-11-08T01:13:12.340Z,17.71
2017-11-08T01:13:25.815Z,17.79
2017-11-08T01:13:38.761Z,17.73
2017-11-08T01:13:51.734Z,17.69
2017-11-08T01:14:04.085Z,17.76
2017-11-08T01:14:16.991Z,17.76
2017-11-08T01:14:29.936Z,17.68
2017-11-08T01:14:42.868Z,17.69
2017-11-08T01:14:56.349Z,17.73
2017-11-08T01:15:09.779Z,17.76
2017-11-08T01:15:23.266Z,17.76
2017-11-08T01:15:36.214Z,17.71
2017-11-08T01:15:49.116Z,17.74
2017-11-08T01:16:02.584Z,17.73
2017-11-08T01:16:14.432Z,17.79
2017-11-08T01:16:27.300Z,17.79
2017-11-08T01:16:40.781Z,17.69
2017-11-08T01:16:53.697Z,17.73
2017-11-08T01:17:06.133Z,17.71
2017-11-08T01:17:19.631Z,17.77
2017-11-08T01:17:31.484Z,17.71
2017-11-08T01:17:43.846Z,17.77
2017-11-08T01:17:56.780Z,17.65
2017-11-08T01:18:10.107Z,17.74
2017-11-08T01:18:23.615Z,17.73
2017-11-08T01:18:58.783Z,17.63
2017-11-08T01:19:11.165Z,17.68
2017-11-08T01:19:24.115Z,17.66
2017-11-08T01:19:36.012Z,17.69
2017-11-08T01:19:47.843Z,17.65
2017-11-08T01:19:59.624Z,17.69
2017-11-08T01:20:11.941Z,17.66
2017-11-08T01:20:25.428Z,17.66
2017-11-08T01:20:38.861Z,17.69
2017-11-08T01:20:52.332Z,17.76
2017-11-08T01:21:04.705Z,17.73
2017-11-08T01:21:17.650Z,17.68
2017-11-08T01:21:30.561Z,17.69
2017-11-08T01:21:43.424Z,17.69
2017-11-08T01:21:55.265Z,17.71
2017-11-08T01:22:07.632Z,17.76
2017-11-08T01:22:21.070Z,17.77
2017-11-08T01:22:34.568Z,17.69
2017-11-08T01:22:46.914Z,17.71
2017-11-08T01:22:59.822Z,17.68
2017-11-08T01:23:11.720Z,17.71
2017-11-08T01:23:23.552Z,17.68
2017-11-08T01:23:37.014Z,17.65
2017-11-08T01:23:49.405Z,17.69
2017-11-08T01:24:02.868Z,17.66
2017-11-08T01:24:15.772Z,17.66
2017-11-08T01:24:28.687Z,17.65
2017-11-08T01:24:42.184Z,17.66
2017-11-08T01:24:55.081Z,17.71
2017-11-08T01:25:08.047Z,17.74
2017-11-08T01:25:20.998Z,17.62
2017-11-08T01:25:33.906Z,17.74
2017-11-08T01:25:46.823Z,17.76
2017-11-08T01:25:59.239Z,17.76
2017-11-08T01:26:12.167Z,17.8
2017-11-08T01:26:25.121Z,17.71
2017-11-08T01:26:36.956Z,17.71
2017-11-08T01:26:49.911Z,17.69
2017-11-08T01:27:02.803Z,17.71
2017-11-08T01:27:15.152Z,17.71
2017-11-08T01:27:27.540Z,17.68
2017-11-08T01:27:40.670Z,17.69
2017-11-08T01:27:54.175Z,17.69
2017-11-08T01:28:07.901Z,17.73
2017-11-08T01:28:19.752Z,17.65
2017-11-08T01:28:32.748Z,17.69
2017-11-08T01:28:45.644Z,17.62
2017-11-08T01:28:59.165Z,17.63
2017-11-08T01:29:10.977Z,17.65
2017-11-08T01:29:24.469Z,17.66
2017-11-08T01:29:37.378Z,17.65
2017-11-08T01:29:50.299Z,17.68
2017-11-08T01:30:03.733Z,17.66
2017-11-08T01:30:16.650Z,17.77
2017-11-08T01:30:30.147Z,17.63
2017-11-08T01:30:43.025Z,17.73
2017-11-08T01:30:55.965Z,17.74
2017-11-08T01:31:08.901Z,17.63
2017-11-08T01:31:21.850Z,17.76
2017-11-08T01:31:34.276Z,17.62
2017-11-08T01:31:47.269Z,17.65
2017-11-08T01:32:00.233Z,17.66
2017-11-08T01:32:13.719Z,17.69
2017-11-08T01:32:26.087Z,17.69
2017-11-08T01:32:39.033Z,17.66
2017-11-08T01:32:52.515Z,17.68
2017-11-08T01:33:06.207Z,17.73
2017-11-08T01:33:19.153Z,17.8
2017-11-08T01:33:31.562Z,17.77
2017-11-08T01:33:43.374Z,17.71
2017-11-08T01:33:55.744Z,17.71
2017-11-08T01:34:08.658Z,17.79
2017-11-08T01:34:21.536Z,17.8
2017-11-08T01:34:34.520Z,17.77
2017-11-08T01:34:47.479Z,17.77
2017-11-08T01:35:00.368Z,17.79
2017-11-08T01:35:13.320Z,17.71
2017-11-08T01:35:26.787Z,17.76
2017-11-08T01:35:40.253Z,17.73
2017-11-08T01:35:52.082Z,17.76
2017-11-08T01:36:05.044Z,17.68
2017-11-08T01:36:18.745Z,17.77
2017-11-08T01:36:31.136Z,17.76
2017-11-08T01:36:44.074Z,17.69
2017-11-08T01:36:56.434Z,17.68
2017-11-08T01:37:08.880Z,17.74
2017-11-08T01:37:21.851Z,17.68
2017-11-08T01:37:34.755Z,17.74
2017-11-08T01:37:47.686Z,17.76
2017-11-08T01:38:00.569Z,17.71
2017-11-08T01:38:12.942Z,17.77
2017-11-08T01:38:26.443Z,17.73
2017-11-08T01:38:39.327Z,17.69
2017-11-08T01:38:51.701Z,17.73
2017-11-08T01:39:04.602Z,17.66
2017-11-08T01:39:17.505Z,17.65
2017-11-08T01:39:30.910Z,17.71
2017-11-08T01:39:43.285Z,17.68
2017-11-08T01:39:56.750Z,17.65
2017-11-08T01:40:09.903Z,17.71
2017-11-08T01:40:22.291Z,17.77
2017-11-08T01:40:35.236Z,17.8
2017-11-08T01:40:48.159Z,17.77
2017-11-08T01:41:01.094Z,17.65
2017-11-08T01:41:13.466Z,17.66
2017-11-08T01:41:26.395Z,17.58
2017-11-08T01:41:38.796Z,17.81
2017-11-08T01:41:51.208Z,17.65
2017-11-08T01:42:04.157Z,17.62
2017-11-08T01:42:17.073Z,17.74
2017-11-08T01:42:30.526Z,17.68
2017-11-08T01:42:42.891Z,17.71
2017-11-08T01:42:55.212Z,17.62
2017-11-08T01:43:08.321Z,17.81
2017-11-08T01:43:21.842Z,17.65
2017-11-08T01:43:34.756Z,17.69
2017-11-08T01:43:47.119Z,17.79
2017-11-08T01:44:00.046Z,17.65
2017-11-08T01:44:13.529Z,17.77
2017-11-08T01:44:25.898Z,17.81
2017-11-08T01:44:38.253Z,17.65
2017-11-08T01:44:51.208Z,17.83
2017-11-08T01:45:04.700Z,17.76
2017-11-08T01:45:17.684Z,17.69
2017-11-08T01:45:30.602Z,17.74
2017-11-08T01:45:44.085Z,17.71
2017-11-08T01:45:56.987Z,17.65
2017-11-08T01:46:09.942Z,17.66
2017-11-08T01:46:23.394Z,17.68
2017-11-08T01:46:35.777Z,17.63
2017-11-08T01:46:48.153Z,17.65
2017-11-08T01:47:01.583Z,17.63
2017-11-08T01:47:14.515Z,17.69
2017-11-08T01:47:27.991Z,17.68
2017-11-08T01:47:41.476Z,17.66
2017-11-08T01:47:54.920Z,17.65
2017-11-08T01:48:07.282Z,17.63
2017-11-08T01:48:20.891Z,17.69
2017-11-08T01:48:34.338Z,17.62
2017-11-08T01:48:47.181Z,17.66
2017-11-08T01:49:00.151Z,17.68
2017-11-08T01:49:12.556Z,17.62
2017-11-08T01:49:24.398Z,17.73
2017-11-08T01:49:36.815Z,17.62
2017-11-08T01:49:49.733Z,17.68
2017-11-08T01:50:02.655Z,17.68
2017-11-08T01:50:16.129Z,17.62
2017-11-08T01:50:28.538Z,17.68
2017-11-08T01:50:41.478Z,17.63
2017-11-08T01:50:54.965Z,17.66
2017-11-08T01:51:07.924Z,17.73
2017-11-08T01:51:21.373Z,17.63
2017-11-08T01:51:34.831Z,17.69
2017-11-08T01:51:48.330Z,17.71
2017-11-08T01:52:01.292Z,17.58
2017-11-08T01:52:14.702Z,17.62
2017-11-08T01:52:27.073Z,17.63
2017-11-08T01:52:40.003Z,17.6
2017-11-08T01:52:53.482Z,17.57
2017-11-08T01:53:05.335Z,17.57
2017-11-08T01:53:18.231Z,17.62
2017-11-08T01:53:30.621Z,17.6
2017-11-08T01:53:44.082Z,17.6
2017-11-08T01:53:57.499Z,17.58
2017-11-08T01:54:10.429Z,17.62
2017-11-08T01:54:23.377Z,17.62
2017-11-08T01:54:35.796Z,17.65
2017-11-08T01:54:49.230Z,17.62
2017-11-08T01:55:01.669Z,17.62
2017-11-08T01:55:14.546Z,17.68
2017-11-08T01:55:27.462Z,17.68
2017-11-08T01:55:39.852Z,17.66
2017-11-08T01:55:53.323Z,17.58
2017-11-08T01:56:06.827Z,17.68
2017-11-08T01:56:20.260Z,17.58
2017-11-08T01:56:33.189Z,17.63
2017-11-08T01:56:46.132Z,17.62
2017-11-08T01:56:58.480Z,17.58
2017-11-08T01:57:11.409Z,17.57
2017-11-08T01:57:25.720Z,17.57
2017-11-08T01:57:38.652Z,17.55
2017-11-08T01:57:51.045Z,17.65
2017-11-08T01:58:03.454Z,17.58
2017-11-08T01:58:16.610Z,17.55
2017-11-08T01:58:29.618Z,17.57
2017-11-08T01:58:43.125Z,17.66
2017-11-08T01:58:56.070Z,17.62
2017-11-08T01:59:08.486Z,17.6
2017-11-08T01:59:21.358Z,17.57
2017-11-08T01:59:34.311Z,17.63
2017-11-08T01:59:46.699Z,17.54
2017-11-08T02:00:00.171Z,17.58
2017-11-08T02:00:13.642Z,17.66
2017-11-08T02:00:27.178Z,17.63
2017-11-08T02:00:40.655Z,17.6
2017-11-08T02:00:51.940Z,17.58
2017-11-08T02:01:04.809Z,17.63
2017-11-08T02:01:17.171Z,17.62
2017-11-08T02:01:30.111Z,17.63
2017-11-08T02:01:43.036Z,17.58
2017-11-08T02:01:55.434Z,17.57
2017-11-08T02:02:08.911Z,17.57
2017-11-08T02:02:21.310Z,17.68
2017-11-08T02:02:34.762Z,17.6
2017-11-08T02:02:47.670Z,17.65
2017-11-08T02:03:00.584Z,17.68
2017-11-08T02:03:13.481Z,17.68
2017-11-08T02:03:26.428Z,17.66
2017-11-08T02:03:39.914Z,17.68
2017-11-08T02:03:52.847Z,17.69
2017-11-08T02:04:06.294Z,17.71
2017-11-08T02:04:19.174Z,17.76
2017-11-08T02:04:32.657Z,17.74
2017-11-08T02:04:46.076Z,17.62
2017-11-08T02:04:58.984Z,17.65
2017-11-08T02:05:11.906Z,17.62
2017-11-08T02:05:25.362Z,17.62
2017-11-08T02:05:38.796Z,17.79
2017-11-08T02:05:52.275Z,17.69
2017-11-08T02:06:05.229Z,17.62
2017-11-08T02:06:18.753Z,17.68
2017-11-08T02:06:32.252Z,17.69
2017-11-08T02:06:45.164Z,17.58
2017-11-08T02:06:58.063Z,17.69
2017-11-08T02:07:11.572Z,17.74
2017-11-08T02:07:24.524Z,17.69
2017-11-08T02:07:38.003Z,17.68
2017-11-08T02:07:50.346Z,17.69
2017-11-08T02:08:03.790Z,17.57
2017-11-08T02:08:16.683Z,17.65
2017-11-08T02:08:30.111Z,17.73
2017-11-08T02:08:43.610Z,17.69
2017-11-08T02:08:56.558Z,17.65
2017-11-08T02:09:10.041Z,17.73
2017-11-08T02:09:22.394Z,17.68
2017-11-08T02:09:35.278Z,17.65
2017-11-08T02:09:48.242Z,17.66
2017-11-08T02:10:01.720Z,17.66
2017-11-08T02:10:13.576Z,17.69
2017-11-08T02:10:27.041Z,17.74
2017-11-08T02:10:40.472Z,17.66
2017-11-08T02:10:53.456Z,17.71
2017-11-08T02:11:06.417Z,17.65
2017-11-08T02:11:18.777Z,17.69
2017-11-08T02:11:31.154Z,17.68
2017-11-08T02:11:43.516Z,17.69
2017-11-08T02:11:56.541Z,17.6
2017-11-08T02:12:09.446Z,17.71
2017-11-08T02:12:22.400Z,17.69
2017-11-08T02:12:35.857Z,17.71
2017-11-08T02:12:48.796Z,17.71
2017-11-08T02:13:01.187Z,17.66
2017-11-08T02:13:14.590Z,17.76
2017-11-08T02:13:27.608Z,17.66
2017-11-08T02:13:39.962Z,17.73
2017-11-08T02:13:53.397Z,17.65
2017-11-08T02:14:06.296Z,17.76
2017-11-08T02:14:18.708Z,17.63
2017-11-08T02:14:31.041Z,17.77
2017-11-08T02:14:42.860Z,17.65
2017-11-08T02:14:55.785Z,17.65
2017-11-08T02:15:08.153Z,17.63
2017-11-08T02:15:21.142Z,17.63
2017-11-08T02:15:33.514Z,17.66
2017-11-08T02:15:45.922Z,17.8
2017-11-08T02:15:59.401Z,17.65
2017-11-08T02:16:12.299Z,17.66
2017-11-08T02:16:25.261Z,17.77
2017-11-08T02:16:37.698Z,17.68
2017-11-08T02:16:51.118Z,17.73
2017-11-08T02:17:04.047Z,17.71
2017-11-08T02:17:16.980Z,17.65
2017-11-08T02:17:30.447Z,17.66
2017-11-08T02:17:42.846Z,17.63
2017-11-08T02:17:55.822Z,17.68
2017-11-08T02:18:08.694Z,17.68
2017-11-08T02:18:22.846Z,17.65
2017-11-08T02:18:35.761Z,17.69
2017-11-08T02:18:49.253Z,17.73
2017-11-08T02:19:02.660Z,17.6
2017-11-08T02:19:16.161Z,17.68
2017-11-08T02:19:29.078Z,17.73
2017-11-08T02:19:42.559Z,17.74
2017-11-08T02:19:55.494Z,17.63
2017-11-08T02:20:08.398Z,17.74
2017-11-08T02:20:21.345Z,17.65
2017-11-08T02:20:33.221Z,17.68
2017-11-08T02:20:46.160Z,17.65
2017-11-08T02:20:59.613Z,17.65
2017-11-08T02:21:13.126Z,17.71
2017-11-08T02:21:26.079Z,17.69
2017-11-08T02:21:39.018Z,17.65
2017-11-08T02:21:51.939Z,17.68
2017-11-08T02:22:04.339Z,17.68
2017-11-08T02:22:17.857Z,17.66
2017-11-08T02:22:29.658Z,17.65
2017-11-08T02:22:42.009Z,17.65
2017-11-08T02:22:54.406Z,17.66
2017-11-08T02:23:06.252Z,17.65
2017-11-08T02:23:19.117Z,17.62
2017-11-08T02:23:31.532Z,17.62
2017-11-08T02:23:44.467Z,17.62
2017-11-08T02:23:56.920Z,17.65
2017-11-08T02:24:10.393Z,17.68
2017-11-08T02:24:22.229Z,17.65
2017-11-08T02:24:34.582Z,17.69
2017-11-08T02:24:47.542Z,17.73
2017-11-08T02:24:59.916Z,17.66
2017-11-08T02:25:12.889Z,17.71
2017-11-08T02:25:25.254Z,17.73
2017-11-08T02:25:38.752Z,17.66
2017-11-08T02:25:52.189Z,17.66
2017-11-08T02:26:05.146Z,17.66
2017-11-08T02:26:18.077Z,17.63
2017-11-08T02:26:30.435Z,17.66
2017-11-08T02:26:43.293Z,17.66
2017-11-08T02:26:55.645Z,17.68
2017-11-08T02:27:08.514Z,17.69
2017-11-08T02:27:21.928Z,17.65
2017-11-08T02:27:34.299Z,17.62
2017-11-08T02:27:47.263Z,17.63
2017-11-08T02:28:00.144Z,17.73
2017-11-08T02:28:12.495Z,17.68
2017-11-08T02:28:24.842Z,17.66
2017-11-08T02:28:36.711Z,17.6
2017-11-08T02:28:50.196Z,17.66
2017-11-08T02:29:02.586Z,17.62
2017-11-08T02:29:14.997Z,17.66
2017-11-08T02:29:27.900Z,17.65
2017-11-08T02:29:41.326Z,17.62
2017-11-08T02:29:53.151Z,17.66
2017-11-08T02:30:06.115Z,17.66
2017-11-08T02:30:19.659Z,17.63
2017-11-08T02:30:32.531Z,17.68
2017-11-08T02:30:44.929Z,17.63
2017-11-08T02:30:57.290Z,17.69
2017-11-08T02:31:10.157Z,17.68
2017-11-08T02:31:23.640Z,17.65
2017-11-08T02:31:36.040Z,17.65
2017-11-08T02:31:49.481Z,17.66
2017-11-08T02:32:02.928Z,17.66
2017-11-08T02:32:16.374Z,17.63
2017-11-08T02:32:29.336Z,17.62
2017-11-08T02:32:41.197Z,17.69
2017-11-08T02:32:53.553Z,17.63
2017-11-08T02:33:06.494Z,17.66
2017-11-08T02:33:19.973Z,17.65
2017-11-08T02:33:33.795Z,17.66
2017-11-08T02:33:46.193Z,17.68
2017-11-08T02:33:58.551Z,17.65
2017-11-08T02:34:12.041Z,17.65
2017-11-08T02:34:24.388Z,17.65
2017-11-08T02:34:36.777Z,17.6
2017-11-08T02:34:49.695Z,17.65
2017-11-08T02:35:02.653Z,17.73
2017-11-08T02:35:16.075Z,17.65
2017-11-08T02:35:28.473Z,17.65
2017-11-08T02:35:41.984Z,17.66
2017-11-08T02:35:53.854Z,17.73
2017-11-08T02:36:06.808Z,17.73
2017-11-08T02:36:19.201Z,17.68
2017-11-08T02:36:31.617Z,17.65
2017-11-08T02:36:43.937Z,17.62
2017-11-08T02:36:56.844Z,17.65
2017-11-08T02:37:09.774Z,17.68
2017-11-08T02:37:22.134Z,17.69
2017-11-08T02:37:35.568Z,17.69
2017-11-08T02:37:48.534Z,17.63
2017-11-08T02:38:01.141Z,17.69
2017-11-08T02:38:14.652Z,17.74
2017-11-08T02:38:27.574Z,17.65
2017-11-08T02:38:39.954Z,17.65
2017-11-08T02:38:53.401Z,17.69
2017-11-08T02:39:06.343Z,17.68
2017-11-08T02:39:19.739Z,17.71
2017-11-08T02:39:33.200Z,17.71
2017-11-08T02:39:46.137Z,17.65
2017-11-08T02:39:59.598Z,17.69
2017-11-08T02:40:12.551Z,17.63
2017-11-08T02:40:25.457Z,17.68
2017-11-08T02:40:37.880Z,17.68
2017-11-08T02:40:51.322Z,17.66
2017-11-08T02:41:03.915Z,17.65
2017-11-08T02:41:16.344Z,17.66
2017-11-08T02:41:28.724Z,17.63
2017-11-08T02:41:41.132Z,17.62
2017-11-08T02:41:53.555Z,17.65
2017-11-08T02:42:06.006Z,17.65
2017-11-08T02:42:18.421Z,17.68
2017-11-08T02:42:31.920Z,17.58
2017-11-08T02:42:45.383Z,17.62
2017-11-08T02:42:58.299Z,17.65
2017-11-08T02:43:11.757Z,17.65
2017-11-08T02:43:24.677Z,17.65
2017-11-08T02:43:37.669Z,17.63
2017-11-08T02:43:49.485Z,17.63
2017-11-08T02:44:02.973Z,17.6
2017-11-08T02:44:15.911Z,17.65
2017-11-08T02:44:29.385Z,17.65
2017-11-08T02:44:40.690Z,17.62
2017-11-08T02:44:54.168Z,17.62
2017-11-08T02:45:06.584Z,17.65
2017-11-08T02:45:19.483Z,17.69
2017-11-08T02:45:31.320Z,17.65
2017-11-08T02:45:43.725Z,17.71
2017-11-08T02:45:57.227Z,17.73
2017-11-08T02:46:09.037Z,17.71
2017-11-08T02:46:21.406Z,17.73
2017-11-08T02:46:34.834Z,17.66
2017-11-08T02:46:47.243Z,17.68
2017-11-08T02:46:59.576Z,17.68
2017-11-08T02:47:12.452Z,17.68